sensor_id;sensor_type;location;lat;lon;timestamp;pressure;altitude;pressure_sealevel;temperature;humidity
36248;BME280;22287;50.824;5.644;2022-12-18T00:01:26;101970.81;;;-4.66;63.33
36248;BME280;22287;50.824;5.644;2022-12-18T00:03:55;101973.47;;;-4.64;63.27
36248;BME280;22287;50.824;5.644;2022-12-18T00:06:24;101963.78;;;-4.56;62.05
36248;BME280;22287;50.824;5.644;2022-12-18T00:08:51;101969.97;;;-4.72;61.95
36248;BME280;22287;50.824;5.644;2022-12-18T00:11:20;101974.34;;;-4.68;61.30
36248;BME280;22287;50.824;5.644;2022-12-18T00:13:48;101971.78;;;-4.87;61.71
36248;BME280;22287;50.824;5.644;2022-12-18T00:16:18;101979.72;;;-5.06;62.27
36248;BME280;22287;50.824;5.644;2022-12-18T00:18:50;101977.09;;;-5.23;63.80
36248;BME280;22287;50.824;5.644;2022-12-18T00:21:18;101982.38;;;-5.26;62.70
36248;BME280;22287;50.824;5.644;2022-12-18T00:23:46;101977.09;;;-5.26;62.75
36248;BME280;22287;50.824;5.644;2022-12-18T00:26:16;101978.84;;;-5.10;62.43
36248;BME280;22287;50.824;5.644;2022-12-18T00:28:44;101978.84;;;-5.43;62.84
36248;BME280;22287;50.824;5.644;2022-12-18T00:31:14;101973.56;;;-5.98;64.09
36248;BME280;22287;50.824;5.644;2022-12-18T00:33:41;101977.97;;;-5.75;63.17
36248;BME280;22287;50.824;5.644;2022-12-18T00:36:18;101978.84;;;-5.70;63.30
36248;BME280;22287;50.824;5.644;2022-12-18T00:38:46;101976.22;;;-5.67;63.32
36248;BME280;22287;50.824;5.644;2022-12-18T00:41:28;101979.72;;;-5.91;63.25
36248;BME280;22287;50.824;5.644;2022-12-18T00:44:15;101977.94;;;-5.81;62.98
36248;BME280;22287;50.824;5.644;2022-12-18T00:46:45;101982.34;;;-5.76;63.05
36248;BME280;22287;50.824;5.644;2022-12-18T00:49:13;101975.31;;;-5.60;62.55
36248;BME280;22287;50.824;5.644;2022-12-18T00:51:40;101968.34;;;-5.55;62.34
36248;BME280;22287;50.824;5.644;2022-12-18T00:54:07;101963.06;;;-5.58;62.64
36248;BME280;22287;50.824;5.644;2022-12-18T00:56:36;101964.78;;;-5.63;62.31
36248;BME280;22287;50.824;5.644;2022-12-18T00:59:13;101954.28;;;-5.66;62.34
36248;BME280;22287;50.824;5.644;2022-12-18T01:01:40;101949.84;;;-5.82;62.82
36248;BME280;22287;50.824;5.644;2022-12-18T01:04:07;101955.94;;;-6.29;63.39
36248;BME280;22287;50.824;5.644;2022-12-18T01:06:34;101954.28;;;-5.92;63.14
36248;BME280;22287;50.824;5.644;2022-12-18T01:09:01;101945.44;;;-6.18;63.79
36248;BME280;22287;50.824;5.644;2022-12-18T01:11:27;101945.50;;;-5.74;62.54
36248;BME280;22287;50.824;5.644;2022-12-18T01:13:54;101941.97;;;-5.66;62.52
36248;BME280;22287;50.824;5.644;2022-12-18T01:16:22;101940.19;;;-6.05;63.15
36248;BME280;22287;50.824;5.644;2022-12-18T01:18:53;101939.34;;;-6.01;63.01
36248;BME280;22287;50.824;5.644;2022-12-18T01:21:21;101934.06;;;-5.76;62.38
36248;BME280;22287;50.824;5.644;2022-12-18T01:23:56;101938.47;;;-5.75;62.44
36248;BME280;22287;50.824;5.644;2022-12-18T01:26:24;101933.19;;;-5.38;61.99
36248;BME280;22287;50.824;5.644;2022-12-18T01:28:51;101941.09;;;-5.60;61.44
36248;BME280;22287;50.824;5.644;2022-12-18T01:31:25;101946.34;;;-5.63;61.59
36248;BME280;22287;50.824;5.644;2022-12-18T01:33:54;101951.63;;;-6.03;62.43
36248;BME280;22287;50.824;5.644;2022-12-18T01:38:48;101947.19;;;-6.13;62.70
36248;BME280;22287;50.824;5.644;2022-12-18T01:41:18;101946.34;;;-6.13;62.62
36248;BME280;22287;50.824;5.644;2022-12-18T01:43:49;101948.16;;;-5.86;61.92
36248;BME280;22287;50.824;5.644;2022-12-18T01:46:19;101934.97;;;-5.86;61.37
36248;BME280;22287;50.824;5.644;2022-12-18T01:48:53;101928.78;;;-6.17;61.52
36248;BME280;22287;50.824;5.644;2022-12-18T01:51:22;101928.75;;;-6.34;62.81
36248;BME280;22287;50.824;5.644;2022-12-18T01:53:49;101928.78;;;-6.32;62.73
36248;BME280;22287;50.824;5.644;2022-12-18T01:56:18;101927.91;;;-6.15;61.90
36248;BME280;22287;50.824;5.644;2022-12-18T01:59:02;101931.50;;;-5.85;61.68
36248;BME280;22287;50.824;5.644;2022-12-18T02:01:32;101931.47;;;-5.88;61.80
36248;BME280;22287;50.824;5.644;2022-12-18T02:04:22;101937.59;;;-5.50;61.18
36248;BME280;22287;50.824;5.644;2022-12-18T02:09:36;101934.94;;;-5.41;61.42
36248;BME280;22287;50.824;5.644;2022-12-18T02:12:23;101926.13;;;-5.16;62.18
36248;BME280;22287;50.824;5.644;2022-12-18T02:17:22;101922.66;;;-5.44;63.21
36248;BME280;22287;50.824;5.644;2022-12-18T02:20:09;101926.13;;;-5.16;63.07
36248;BME280;22287;50.824;5.644;2022-12-18T02:27:44;101915.56;;;-5.04;62.41
36248;BME280;22287;50.824;5.644;2022-12-18T02:30:13;101913.03;;;-5.58;63.92
36248;BME280;22287;50.824;5.644;2022-12-18T02:32:43;101920.03;;;-5.59;65.78
36248;BME280;22287;50.824;5.644;2022-12-18T02:35:16;101917.34;;;-5.09;64.41
36248;BME280;22287;50.824;5.644;2022-12-18T02:37:50;101912.88;;;-4.89;63.54
36248;BME280;22287;50.824;5.644;2022-12-18T02:40:19;101917.09;;;-4.42;63.43
36248;BME280;22287;50.824;5.644;2022-12-18T02:42:49;101910.19;;;-4.64;62.93
36248;BME280;22287;50.824;5.644;2022-12-18T02:45:17;101915.50;;;-4.83;63.52
36248;BME280;22287;50.824;5.644;2022-12-18T02:47:48;101907.69;;;-5.13;64.00
36248;BME280;22287;50.824;5.644;2022-12-18T02:50:33;101907.66;;;-4.95;63.74
36248;BME280;22287;50.824;5.644;2022-12-18T02:53:17;101895.44;;;-5.35;64.92
36248;BME280;22287;50.824;5.644;2022-12-18T02:56:06;101904.22;;;-5.38;65.81
36248;BME280;22287;50.824;5.644;2022-12-18T03:04:10;101881.44;;;-5.61;66.87
36248;BME280;22287;50.824;5.644;2022-12-18T03:06:41;101881.41;;;-5.60;67.11
36248;BME280;22287;50.824;5.644;2022-12-18T03:09:19;101884.75;;;-4.85;65.99
36248;BME280;22287;50.824;5.644;2022-12-18T03:11:53;101872.59;;;-5.19;66.51
36248;BME280;22287;50.824;5.644;2022-12-18T03:14:42;101873.47;;;-5.36;66.40
36248;BME280;22287;50.824;5.644;2022-12-18T03:17:17;101856.78;;;-5.27;65.06
36248;BME280;22287;50.824;5.644;2022-12-18T03:19:47;101863.78;;;-5.21;65.60
36248;BME280;22287;50.824;5.644;2022-12-18T03:22:16;101862.00;;;-5.10;65.21
36248;BME280;22287;50.824;5.644;2022-12-18T03:24:50;101859.47;;;-5.56;65.44
36248;BME280;22287;50.824;5.644;2022-12-18T03:27:20;101846.91;;;-4.72;64.66
36248;BME280;22287;50.824;5.644;2022-12-18T03:29:56;101853.13;;;-4.84;64.33
36248;BME280;22287;50.824;5.644;2022-12-18T03:32:52;101862.88;;;-5.04;65.30
36248;BME280;22287;50.824;5.644;2022-12-18T03:35:37;101847.88;;;-4.93;64.44
36248;BME280;22287;50.824;5.644;2022-12-18T03:38:07;101845.84;;;-4.38;63.77
36248;BME280;22287;50.824;5.644;2022-12-18T03:40:59;101859.13;;;-4.57;63.54
36248;BME280;22287;50.824;5.644;2022-12-18T03:46:11;101865.44;;;-4.90;64.35
36248;BME280;22287;50.824;5.644;2022-12-18T03:48:45;101866.31;;;-4.91;64.34
36248;BME280;22287;50.824;5.644;2022-12-18T03:51:24;101866.41;;;-5.12;64.56
36248;BME280;22287;50.824;5.644;2022-12-18T03:53:57;101861.09;;;-5.08;64.70
36248;BME280;22287;50.824;5.644;2022-12-18T03:56:36;101853.25;;;-5.17;65.99
36248;BME280;22287;50.824;5.644;2022-12-18T03:59:07;101848.59;;;-4.60;65.33
36248;BME280;22287;50.824;5.644;2022-12-18T04:01:41;101855.06;;;-5.37;66.04
36248;BME280;22287;50.824;5.644;2022-12-18T04:04:12;101858.38;;;-4.85;65.24
36248;BME280;22287;50.824;5.644;2022-12-18T04:06:43;101857.56;;;-4.92;65.36
36248;BME280;22287;50.824;5.644;2022-12-18T04:09:12;101847.03;;;-5.04;65.04
36248;BME280;22287;50.824;5.644;2022-12-18T04:11:43;101839.84;;;-4.65;64.69
36248;BME280;22287;50.824;5.644;2022-12-18T04:14:14;101841.94;;;-5.58;66.85
36248;BME280;22287;50.824;5.644;2022-12-18T04:16:44;101831.38;;;-5.57;66.73
36248;BME280;22287;50.824;5.644;2022-12-18T04:19:15;101836.56;;;-5.14;66.18
36248;BME280;22287;50.824;5.644;2022-12-18T04:21:43;101837.47;;;-5.27;66.42
36248;BME280;22287;50.824;5.644;2022-12-18T04:24:12;101828.75;;;-5.57;66.46
36248;BME280;22287;50.824;5.644;2022-12-18T04:26:46;101838.34;;;-5.38;66.19
36248;BME280;22287;50.824;5.644;2022-12-18T04:29:20;101840.97;;;-5.27;65.94
36248;BME280;22287;50.824;5.644;2022-12-18T04:31:47;101856.75;;;-5.21;65.00
36248;BME280;22287;50.824;5.644;2022-12-18T04:34:15;101854.03;;;-4.86;64.08
36248;BME280;22287;50.824;5.644;2022-12-18T04:36:48;101859.22;;;-4.72;63.76
36248;BME280;22287;50.824;5.644;2022-12-18T04:39:15;101861.06;;;-4.87;63.30
36248;BME280;22287;50.824;5.644;2022-12-18T04:41:42;101858.38;;;-4.82;63.52
36248;BME280;22287;50.824;5.644;2022-12-18T04:44:11;101859.38;;;-5.06;64.36
36248;BME280;22287;50.824;5.644;2022-12-18T04:46:38;101859.31;;;-5.00;64.13
36248;BME280;22287;50.824;5.644;2022-12-18T04:49:05;101869.03;;;-5.06;64.11
36248;BME280;22287;50.824;5.644;2022-12-18T04:51:31;101871.72;;;-5.30;65.20
36248;BME280;22287;50.824;5.644;2022-12-18T04:53:59;101868.94;;;-4.82;64.14
36248;BME280;22287;50.824;5.644;2022-12-18T04:56:25;101852.22;;;-4.86;63.95
36248;BME280;22287;50.824;5.644;2022-12-18T04:58:52;101856.59;;;-4.77;63.67
36248;BME280;22287;50.824;5.644;2022-12-18T05:01:19;101855.78;;;-4.93;64.14
36248;BME280;22287;50.824;5.644;2022-12-18T05:03:46;101853.25;;;-5.14;64.13
36248;BME280;22287;50.824;5.644;2022-12-18T05:06:13;101840.88;;;-5.01;63.57
36248;BME280;22287;50.824;5.644;2022-12-18T05:08:40;101835.66;;;-5.06;63.82
36248;BME280;22287;50.824;5.644;2022-12-18T05:11:09;101841.03;;;-5.45;64.96
36248;BME280;22287;50.824;5.644;2022-12-18T05:13:37;101836.53;;;-5.19;64.17
36248;BME280;22287;50.824;5.644;2022-12-18T05:16:05;101848.97;;;-5.69;65.67
36248;BME280;22287;50.824;5.644;2022-12-18T05:18:32;101847.16;;;-5.49;66.03
36248;BME280;22287;50.824;5.644;2022-12-18T05:20:59;101863.00;;;-5.79;66.20
36248;BME280;22287;50.824;5.644;2022-12-18T05:23:27;101866.50;;;-5.62;66.01
36248;BME280;22287;50.824;5.644;2022-12-18T05:25:56;101868.25;;;-5.58;65.80
36248;BME280;22287;50.824;5.644;2022-12-18T05:28:24;101862.03;;;-5.16;64.58
36248;BME280;22287;50.824;5.644;2022-12-18T05:30:54;101862.72;;;-4.64;63.01
36248;BME280;22287;50.824;5.644;2022-12-18T05:33:22;101858.31;;;-4.67;62.86
36248;BME280;22287;50.824;5.644;2022-12-18T05:36:00;101869.91;;;-5.12;63.21
36248;BME280;22287;50.824;5.644;2022-12-18T05:38:30;101874.31;;;-5.09;62.78
36248;BME280;22287;50.824;5.644;2022-12-18T05:40:58;101874.31;;;-5.24;63.13
36248;BME280;22287;50.824;5.644;2022-12-18T05:43:26;101864.72;;;-5.63;63.10
36248;BME280;22287;50.824;5.644;2022-12-18T05:45:53;101875.34;;;-5.97;63.77
36248;BME280;22287;50.824;5.644;2022-12-18T05:48:21;101863.06;;;-5.88;63.59
36248;BME280;22287;50.824;5.644;2022-12-18T05:50:49;101858.59;;;-5.71;62.84
36248;BME280;22287;50.824;5.644;2022-12-18T05:53:18;101859.53;;;-5.89;63.31
36248;BME280;22287;50.824;5.644;2022-12-18T05:55:46;101863.03;;;-5.91;63.24
36248;BME280;22287;50.824;5.644;2022-12-18T05:58:14;101860.41;;;-6.01;63.34
36248;BME280;22287;50.824;5.644;2022-12-18T06:00:45;101859.53;;;-5.98;63.36
36248;BME280;22287;50.824;5.644;2022-12-18T06:03:13;101856.03;;;-5.91;62.94
36248;BME280;22287;50.824;5.644;2022-12-18T06:05:42;101852.47;;;-5.79;62.43
36248;BME280;22287;50.824;5.644;2022-12-18T06:08:10;101860.41;;;-6.08;63.10
36248;BME280;22287;50.824;5.644;2022-12-18T06:10:37;101856.00;;;-6.02;62.99
36248;BME280;22287;50.824;5.644;2022-12-18T06:13:05;101859.53;;;-6.00;62.46
36248;BME280;22287;50.824;5.644;2022-12-18T06:15:32;101861.22;;;-6.44;63.72
36248;BME280;22287;50.824;5.644;2022-12-18T06:18:00;101850.72;;;-6.29;62.92
36248;BME280;22287;50.824;5.644;2022-12-18T06:20:27;101850.75;;;-6.20;62.56
36248;BME280;22287;50.824;5.644;2022-12-18T06:22:58;101858.63;;;-6.21;62.52
36248;BME280;22287;50.824;5.644;2022-12-18T06:25:25;101855.94;;;-6.56;63.23
36248;BME280;22287;50.824;5.644;2022-12-18T06:27:52;101854.22;;;-6.42;62.61
36248;BME280;22287;50.824;5.644;2022-12-18T06:30:19;101849.00;;;-6.30;62.25
36248;BME280;22287;50.824;5.644;2022-12-18T06:32:48;101866.41;;;-6.62;63.10
36248;BME280;22287;50.824;5.644;2022-12-18T06:35:20;101859.47;;;-6.34;62.08
36248;BME280;22287;50.824;5.644;2022-12-18T06:37:46;101869.94;;;-6.57;62.50
36248;BME280;22287;50.824;5.644;2022-12-18T06:40:13;101864.66;;;-6.65;62.82
36248;BME280;22287;50.824;5.644;2022-12-18T06:42:40;101852.44;;;-6.58;62.71
36248;BME280;22287;50.824;5.644;2022-12-18T06:45:07;101866.50;;;-6.44;62.05
36248;BME280;22287;50.824;5.644;2022-12-18T06:47:34;101859.41;;;-6.57;62.12
36248;BME280;22287;50.824;5.644;2022-12-18T06:50:01;101859.44;;;-6.54;62.57
36248;BME280;22287;50.824;5.644;2022-12-18T06:52:27;101860.28;;;-6.67;62.82
36248;BME280;22287;50.824;5.644;2022-12-18T06:54:54;101854.94;;;-6.87;63.23
36248;BME280;22287;50.824;5.644;2022-12-18T06:57:21;101860.25;;;-6.78;63.13
36248;BME280;22287;50.824;5.644;2022-12-18T06:59:48;101860.28;;;-6.72;62.92
36248;BME280;22287;50.824;5.644;2022-12-18T07:02:15;101865.53;;;-6.75;61.88
36248;BME280;22287;50.824;5.644;2022-12-18T07:04:41;101862.91;;;-6.67;61.82
36248;BME280;22287;50.824;5.644;2022-12-18T07:07:08;101860.34;;;-6.47;61.51
36248;BME280;22287;50.824;5.644;2022-12-18T07:09:35;101861.03;;;-7.04;62.09
36248;BME280;22287;50.824;5.644;2022-12-18T07:12:01;101847.06;;;-6.91;62.69
36248;BME280;22287;50.824;5.644;2022-12-18T07:14:28;101834.91;;;-6.53;61.35
36248;BME280;22287;50.824;5.644;2022-12-18T07:16:55;101827.91;;;-6.42;61.80
36248;BME280;22287;50.824;5.644;2022-12-18T07:19:22;101819.19;;;-6.17;61.03
36248;BME280;22287;50.824;5.644;2022-12-18T07:21:50;101803.38;;;-6.26;61.23
36248;BME280;22287;50.824;5.644;2022-12-18T07:24:17;101800.75;;;-6.17;62.56
36248;BME280;22287;50.824;5.644;2022-12-18T07:26:45;101800.72;;;-5.85;61.44
36248;BME280;22287;50.824;5.644;2022-12-18T07:29:12;101803.31;;;-5.68;61.53
36248;BME280;22287;50.824;5.644;2022-12-18T07:31:39;101796.31;;;-5.66;62.17
36248;BME280;22287;50.824;5.644;2022-12-18T07:34:10;101794.63;;;-6.25;62.79
36248;BME280;22287;50.824;5.644;2022-12-18T07:36:37;101789.34;;;-6.16;64.68
36248;BME280;22287;50.824;5.644;2022-12-18T07:39:04;101787.59;;;-6.54;65.29
36248;BME280;22287;50.824;5.644;2022-12-18T07:41:31;101792.00;;;-6.14;65.33
36248;BME280;22287;50.824;5.644;2022-12-18T07:44:11;101782.34;;;-6.12;64.54
36248;BME280;22287;50.824;5.644;2022-12-18T07:46:38;101784.09;;;-5.88;64.11
36248;BME280;22287;50.824;5.644;2022-12-18T07:49:05;101784.91;;;-5.76;63.90
36248;BME280;22287;50.824;5.644;2022-12-18T07:51:32;101786.59;;;-5.42;63.61
36248;BME280;22287;50.824;5.644;2022-12-18T07:53:59;101772.41;;;-5.13;62.97
36248;BME280;22287;50.824;5.644;2022-12-18T07:56:25;101783.75;;;-4.95;62.04
36248;BME280;22287;50.824;5.644;2022-12-18T07:58:54;101772.47;;;-5.30;61.75
36248;BME280;22287;50.824;5.644;2022-12-18T08:01:21;101762.00;;;-5.45;63.64
36248;BME280;22287;50.824;5.644;2022-12-18T08:03:48;101767.09;;;-5.03;62.45
36248;BME280;22287;50.824;5.644;2022-12-18T08:06:17;101754.84;;;-5.08;62.11
36248;BME280;22287;50.824;5.644;2022-12-18T08:08:43;101754.72;;;-4.90;63.36
36248;BME280;22287;50.824;5.644;2022-12-18T08:11:10;101748.53;;;-4.83;63.15
36248;BME280;22287;50.824;5.644;2022-12-18T08:13:37;101752.06;;;-4.86;61.69
36248;BME280;22287;50.824;5.644;2022-12-18T08:16:06;101752.13;;;-4.95;60.98
36248;BME280;22287;50.824;5.644;2022-12-18T08:18:35;101763.50;;;-4.87;61.69
36248;BME280;22287;50.824;5.644;2022-12-18T08:21:29;101765.22;;;-4.86;61.12
36248;BME280;22287;50.824;5.644;2022-12-18T08:23:58;101773.19;;;-4.93;61.33
36248;BME280;22287;50.824;5.644;2022-12-18T08:26:28;101768.78;;;-4.90;61.42
36248;BME280;22287;50.824;5.644;2022-12-18T08:28:56;101765.22;;;-4.83;61.19
36248;BME280;22287;50.824;5.644;2022-12-18T08:31:24;101768.75;;;-4.82;61.34
36248;BME280;22287;50.824;5.644;2022-12-18T08:33:52;101774.09;;;-4.96;61.55
36248;BME280;22287;50.824;5.644;2022-12-18T08:36:20;101771.50;;;-5.11;62.17
36248;BME280;22287;50.824;5.644;2022-12-18T08:38:47;101777.56;;;-4.86;62.18
36248;BME280;22287;50.824;5.644;2022-12-18T08:41:15;101774.13;;;-5.05;61.96
36248;BME280;22287;50.824;5.644;2022-12-18T08:43:42;101772.25;;;-4.83;62.36
36248;BME280;22287;50.824;5.644;2022-12-18T08:46:36;101767.97;;;-4.98;62.74
36248;BME280;22287;50.824;5.644;2022-12-18T08:49:05;101760.88;;;-4.87;62.42
36248;BME280;22287;50.824;5.644;2022-12-18T08:51:32;101753.59;;;-4.51;62.86
36248;BME280;22287;50.824;5.644;2022-12-18T08:54:00;101740.13;;;-4.20;62.73
36248;BME280;22287;50.824;5.644;2022-12-18T08:56:27;101729.19;;;-4.81;63.87
36248;BME280;22287;50.824;5.644;2022-12-18T08:58:54;101728.06;;;-4.45;64.23
36248;BME280;22287;50.824;5.644;2022-12-18T09:01:21;101734.78;;;-4.09;64.20
36248;BME280;22287;50.824;5.644;2022-12-18T09:03:49;101732.81;;;-3.87;62.91
36248;BME280;22287;50.824;5.644;2022-12-18T09:06:20;101730.97;;;-3.81;63.15
36248;BME280;22287;50.824;5.644;2022-12-18T09:08:48;101740.41;;;-3.59;62.87
36248;BME280;22287;50.824;5.644;2022-12-18T09:11:23;101741.31;;;-3.60;61.79
36248;BME280;22287;50.824;5.644;2022-12-18T09:13:51;101734.59;;;-3.13;62.10
36248;BME280;22287;50.824;5.644;2022-12-18T09:16:19;101732.59;;;-2.96;61.73
36248;BME280;22287;50.824;5.644;2022-12-18T09:18:48;101731.81;;;-3.06;62.51
36248;BME280;22287;50.824;5.644;2022-12-18T09:21:20;101727.78;;;-3.32;61.94
36248;BME280;22287;50.824;5.644;2022-12-18T09:23:52;101730.03;;;-3.02;62.96
36248;BME280;22287;50.824;5.644;2022-12-18T09:26:19;101727.91;;;-2.77;62.13
36248;BME280;22287;50.824;5.644;2022-12-18T09:28:46;101721.94;;;-2.90;61.98
36248;BME280;22287;50.824;5.644;2022-12-18T09:31:13;101725.19;;;-2.73;62.76
36248;BME280;22287;50.824;5.644;2022-12-18T09:33:41;101722.28;;;-2.56;61.61
36248;BME280;22287;50.824;5.644;2022-12-18T09:36:09;101714.69;;;-2.79;62.25
36248;BME280;22287;50.824;5.644;2022-12-18T09:38:38;101716.38;;;-2.72;62.65
36248;BME280;22287;50.824;5.644;2022-12-18T09:44:16;101704.97;;;-2.23;61.59
36248;BME280;22287;50.824;5.644;2022-12-18T09:46:49;101706.50;;;-2.62;62.63
36248;BME280;22287;50.824;5.644;2022-12-18T09:49:21;101710.91;;;-2.60;62.66
36248;BME280;22287;50.824;5.644;2022-12-18T09:51:54;101713.69;;;-2.69;62.84
36248;BME280;22287;50.824;5.644;2022-12-18T09:54:26;101717.06;;;-2.61;63.68
36248;BME280;22287;50.824;5.644;2022-12-18T09:56:56;101702.69;;;-2.45;63.04
36248;BME280;22287;50.824;5.644;2022-12-18T09:59:26;101703.34;;;-2.30;62.61
36248;BME280;22287;50.824;5.644;2022-12-18T10:01:56;101702.56;;;-2.35;62.90
36248;BME280;22287;50.824;5.644;2022-12-18T10:04:24;101712.50;;;-2.51;63.63
36248;BME280;22287;50.824;5.644;2022-12-18T10:07:16;101707.06;;;-2.41;64.27
36248;BME280;22287;50.824;5.644;2022-12-18T10:24:47;101681.41;;;-1.90;64.75
36248;BME280;22287;50.824;5.644;2022-12-18T10:27:21;101693.84;;;-1.93;64.47
36248;BME280;22287;50.824;5.644;2022-12-18T10:29:47;101701.88;;;-1.96;64.91
36248;BME280;22287;50.824;5.644;2022-12-18T10:32:30;101692.06;;;-1.91;65.34
36248;BME280;22287;50.824;5.644;2022-12-18T10:35:18;101690.97;;;-1.80;65.51
36248;BME280;22287;50.824;5.644;2022-12-18T10:40:58;101684.56;;;-1.71;66.06
36248;BME280;22287;50.824;5.644;2022-12-18T10:43:40;101675.78;;;-1.73;65.90
36248;BME280;22287;50.824;5.644;2022-12-18T10:48:53;101664.97;;;-2.07;68.41
36248;BME280;22287;50.824;5.644;2022-12-18T10:51:28;101658.78;;;-1.61;67.22
36248;BME280;22287;50.824;5.644;2022-12-18T10:53:59;101649.22;;;-2.14;68.58
36248;BME280;22287;50.824;5.644;2022-12-18T10:56:29;101650.06;;;-2.12;68.31
36248;BME280;22287;50.824;5.644;2022-12-18T10:59:05;101653.06;;;-1.85;67.97
36248;BME280;22287;50.824;5.644;2022-12-18T11:04:22;101665.38;;;-1.82;68.08
36248;BME280;22287;50.824;5.644;2022-12-18T11:06:59;101648.00;;;-1.52;67.72
36248;BME280;22287;50.824;5.644;2022-12-18T11:09:29;101634.06;;;-1.62;68.04
36248;BME280;22287;50.824;5.644;2022-12-18T11:11:59;101631.56;;;-1.30;67.16
36248;BME280;22287;50.824;5.644;2022-12-18T11:14:28;101625.44;;;-1.32;66.81
36248;BME280;22287;50.824;5.644;2022-12-18T11:16:56;101625.44;;;-0.93;65.72
36248;BME280;22287;50.824;5.644;2022-12-18T11:19:43;101615.69;;;-1.71;67.96
36248;BME280;22287;50.824;5.644;2022-12-18T11:22:36;101621.81;;;-2.12;69.93
36248;BME280;22287;50.824;5.644;2022-12-18T11:25:17;101613.84;;;-2.12;70.37
36248;BME280;22287;50.824;5.644;2022-12-18T11:28:05;101612.53;;;-1.88;70.27
36248;BME280;22287;50.824;5.644;2022-12-18T11:30:36;101610.91;;;-1.52;68.65
36248;BME280;22287;50.824;5.644;2022-12-18T11:33:10;101611.72;;;-1.92;69.99
36248;BME280;22287;50.824;5.644;2022-12-18T11:40:45;101598.53;;;-1.53;69.05
36248;BME280;22287;50.824;5.644;2022-12-18T11:43:41;101592.38;;;-1.97;70.55
36248;BME280;22287;50.824;5.644;2022-12-18T11:46:11;101586.09;;;-1.51;70.20
36248;BME280;22287;50.824;5.644;2022-12-18T11:48:49;101590.19;;;-2.19;71.77
36248;BME280;22287;50.824;5.644;2022-12-18T11:51:28;101582.72;;;-1.99;71.89
36248;BME280;22287;50.824;5.644;2022-12-18T11:53:56;101583.75;;;-1.65;70.97
36248;BME280;22287;50.824;5.644;2022-12-18T11:56:30;101575.03;;;-1.70;71.03
36248;BME280;22287;50.824;5.644;2022-12-18T12:04:33;101561.47;;;-1.96;73.21
36248;BME280;22287;50.824;5.644;2022-12-18T12:07:44;101549.56;;;-1.37;70.71
36248;BME280;22287;50.824;5.644;2022-12-18T12:15:57;101550.13;;;-0.22;66.98
36248;BME280;22287;50.824;5.644;2022-12-18T12:21:39;101535.94;;;-0.21;66.80
36248;BME280;22287;50.824;5.644;2022-12-18T12:29:58;101529.69;;;0.11;67.22
36248;BME280;22287;50.824;5.644;2022-12-18T12:32:53;101532.03;;;-0.08;67.49
36248;BME280;22287;50.824;5.644;2022-12-18T12:35:47;101513.22;;;-0.31;67.83
36248;BME280;22287;50.824;5.644;2022-12-18T12:40:56;101508.84;;;-0.03;67.29
36248;BME280;22287;50.824;5.644;2022-12-18T12:43:41;101517.09;;;0.18;66.95
36248;BME280;22287;50.824;5.644;2022-12-18T12:46:18;101517.13;;;-0.13;69.52
36248;BME280;22287;50.824;5.644;2022-12-18T12:48:47;101523.69;;;0.34;67.90
36248;BME280;22287;50.824;5.644;2022-12-18T12:51:21;101515.19;;;0.52;66.84
36248;BME280;22287;50.824;5.644;2022-12-18T12:53:49;101508.06;;;0.52;66.65
36248;BME280;22287;50.824;5.644;2022-12-18T12:56:18;101505.34;;;0.54;66.67
36248;BME280;22287;50.824;5.644;2022-12-18T13:01:41;101489.75;;;0.42;67.60
36248;BME280;22287;50.824;5.644;2022-12-18T13:04:36;101485.28;;;0.44;67.83
36248;BME280;22287;50.824;5.644;2022-12-18T13:07:08;101471.31;;;0.65;66.26
36248;BME280;22287;50.824;5.644;2022-12-18T13:12:53;101469.19;;;0.48;68.50
36248;BME280;22287;50.824;5.644;2022-12-18T13:15:28;101462.59;;;0.60;67.66
36248;BME280;22287;50.824;5.644;2022-12-18T13:18:20;101463.16;;;0.70;67.01
36248;BME280;22287;50.824;5.644;2022-12-18T13:25:54;101452.59;;;0.68;67.77
36248;BME280;22287;50.824;5.644;2022-12-18T13:31:01;101463.09;;;0.45;68.77
36248;BME280;22287;50.824;5.644;2022-12-18T13:38:44;101455.88;;;0.76;68.15
36248;BME280;22287;50.824;5.644;2022-12-18T13:43:45;101460.97;;;0.82;68.34
36248;BME280;22287;50.824;5.644;2022-12-18T13:51:48;101454.13;;;1.01;67.86
36248;BME280;22287;50.824;5.644;2022-12-18T13:54:33;101449.25;;;0.88;67.91
36248;BME280;22287;50.824;5.644;2022-12-18T13:57:02;101454.19;;;0.46;69.82
36248;BME280;22287;50.824;5.644;2022-12-18T13:59:37;101450.28;;;0.57;69.38
36248;BME280;22287;50.824;5.644;2022-12-18T14:02:17;101463.78;;;0.51;69.84
36248;BME280;22287;50.824;5.644;2022-12-18T14:04:48;101457.91;;;0.68;69.65
36248;BME280;22287;50.824;5.644;2022-12-18T14:07:19;101466.75;;;1.46;67.17
36248;BME280;22287;50.824;5.644;2022-12-18T14:09:50;101461.28;;;0.99;68.51
36248;BME280;22287;50.824;5.644;2022-12-18T14:12:28;101448.69;;;1.04;68.17
36248;BME280;22287;50.824;5.644;2022-12-18T14:20:49;101461.16;;;1.02;68.49
36248;BME280;22287;50.824;5.644;2022-12-18T14:23:48;101468.63;;;0.91;69.14
36248;BME280;22287;50.824;5.644;2022-12-18T14:26:32;101472.03;;;0.96;68.40
36248;BME280;22287;50.824;5.644;2022-12-18T14:29:01;101474.50;;;0.48;69.71
36248;BME280;22287;50.824;5.644;2022-12-18T14:31:30;101469.78;;;0.30;71.13
36248;BME280;22287;50.824;5.644;2022-12-18T14:33:58;101468.22;;;0.51;69.20
36248;BME280;22287;50.824;5.644;2022-12-18T14:36:38;101469.34;;;0.70;68.94
36248;BME280;22287;50.824;5.644;2022-12-18T14:39:16;101466.22;;;0.85;69.41
36248;BME280;22287;50.824;5.644;2022-12-18T14:41:44;101459.50;;;0.74;68.81
36248;BME280;22287;50.824;5.644;2022-12-18T14:44:12;101465.38;;;0.83;68.43
36248;BME280;22287;50.824;5.644;2022-12-18T14:46:39;101454.88;;;1.05;67.26
36248;BME280;22287;50.824;5.644;2022-12-18T14:49:29;101463.03;;;0.74;69.05
36248;BME280;22287;50.824;5.644;2022-12-18T14:52:01;101458.22;;;0.85;68.49
36248;BME280;22287;50.824;5.644;2022-12-18T14:54:37;101462.91;;;0.51;70.13
36248;BME280;22287;50.824;5.644;2022-12-18T14:57:22;101464.91;;;0.71;68.95
36248;BME280;22287;50.824;5.644;2022-12-18T14:59:50;101461.38;;;0.70;68.21
36248;BME280;22287;50.824;5.644;2022-12-18T15:02:27;101465.16;;;1.15;66.88